Archival Weather

Republic

Farmingdale, New York (KFRG)

Report from: Sunday, January 28, 2024 12:53 PM EST
Current time: Monday, June 17, 2024 4:20 AM EDT

Current weather – Weather history – Daily summaries
Weather forecast

Present weatherMist
Temperature4.4°C (39.9°F)
Wind chill-0.1°C (31.7°F)
Dew point3.3°C (37.9°F)
Winds 13 kts (6.7 m/s, 15 mph) Northeast (50°)
Wind gusts 19 kts (9.8 m/s, 21.9 mph)
Visibility2.5 mi. (4 km)
Clouds Ceiling: Overcast 800 ft. (244 m)
Altimeter29.71 in.Hg (1006 mB)
Precip last 3 hours0.20 in. (5 mm)
Relative humidity93 %
Density altitude-925 ft. (-282 m)
Sea-level pressure100.6 kPa (1006 mB, 29.71 in.Hg)
Max temp last 6 hours5.0°C (41.0°F)
Min temp last 6 hours3.9°C (39.0°F)
Remarks Automated weather observing station without precipitation discriminator
Ceiling
Pressure falling more slowly
Flight conditions Instrument Meteorological Conditions
Raw dataKFRG 281753Z 05013G19KT 2 1/2SM BR OVC008 04/03 A2971 RMK AO1 CIG 007V012 SLP061 60020 T00440033 10050 20039 56030
An error has occurred. This application may no longer respond until reloaded. Reload 🗙